sensor_id;sensor_type;location;lat;lon;timestamp;pressure;altitude;pressure_sealevel;temperature;humidity
34586;BME280;20816;50.950;11.108;2023-05-07T00:00:55;98713.66;;;11.16;100.00
34586;BME280;20816;50.950;11.108;2023-05-07T00:03:21;98707.56;;;11.14;100.00
34586;BME280;20816;50.950;11.108;2023-05-07T00:05:48;98702.63;;;11.00;100.00
34586;BME280;20816;50.950;11.108;2023-05-07T00:08:15;98705.13;;;11.05;100.00
34586;BME280;20816;50.950;11.108;2023-05-07T00:10:41;98710.41;;;11.05;100.00
34586;BME280;20816;50.950;11.108;2023-05-07T00:13:08;98707.75;;;11.05;100.00
34586;BME280;20816;50.950;11.108;2023-05-07T00:15:35;98717.19;;;11.15;100.00
34586;BME280;20816;50.950;11.108;2023-05-07T00:18:01;98722.44;;;11.16;100.00
34586;BME280;20816;50.950;11.108;2023-05-07T00:20:28;98725.97;;;11.14;100.00
34586;BME280;20816;50.950;11.108;2023-05-07T00:22:55;98730.44;;;11.10;100.00
34586;BME280;20816;50.950;11.108;2023-05-07T00:25:21;98716.22;;;11.19;100.00
34586;BME280;20816;50.950;11.108;2023-05-07T00:27:48;98719.63;;;11.24;100.00
34586;BME280;20816;50.950;11.108;2023-05-07T00:30:15;98726.81;;;11.16;100.00
34586;BME280;20816;50.950;11.108;2023-05-07T00:32:42;98727.69;;;11.15;100.00
34586;BME280;20816;50.950;11.108;2023-05-07T00:35:11;98720.09;;;11.03;100.00
34586;BME280;20816;50.950;11.108;2023-05-07T00:37:38;98713.72;;;11.13;100.00
34586;BME280;20816;50.950;11.108;2023-05-07T00:40:06;98717.25;;;11.12;100.00
34586;BME280;20816;50.950;11.108;2023-05-07T00:42:34;98727.81;;;11.10;100.00
34586;BME280;20816;50.950;11.108;2023-05-07T00:45:01;98735.03;;;11.01;100.00
34586;BME280;20816;50.950;11.108;2023-05-07T00:47:27;98732.19;;;11.11;100.00
34586;BME280;20816;50.950;11.108;2023-05-07T00:49:54;98730.28;;;11.18;100.00
34586;BME280;20816;50.950;11.108;2023-05-07T00:52:21;98725.31;;;11.04;100.00
34586;BME280;20816;50.950;11.108;2023-05-07T00:54:50;98721.97;;;10.96;100.00
34586;BME280;20816;50.950;11.108;2023-05-07T00:57:16;98719.09;;;11.07;100.00
34586;BME280;20816;50.950;11.108;2023-05-07T00:59:43;98720.13;;;11.01;100.00
34586;BME280;20816;50.950;11.108;2023-05-07T01:02:10;98721.03;;;10.99;100.00
34586;BME280;20816;50.950;11.108;2023-05-07T01:04:37;98716.47;;;11.08;100.00
34586;BME280;20816;50.950;11.108;2023-05-07T01:07:04;98721.03;;;10.99;100.00
34586;BME280;20816;50.950;11.108;2023-05-07T01:09:31;98722.84;;;10.97;100.00
34586;BME280;20816;50.950;11.108;2023-05-07T01:11:58;98722.59;;;11.07;100.00
34586;BME280;20816;50.950;11.108;2023-05-07T01:14:26;98726.44;;;10.92;100.00
34586;BME280;20816;50.950;11.108;2023-05-07T01:16:53;98725.44;;;11.00;100.00
34586;BME280;20816;50.950;11.108;2023-05-07T01:19:20;98723.88;;;10.89;100.00
34586;BME280;20816;50.950;11.108;2023-05-07T01:21:48;98734.50;;;10.85;100.00
34586;BME280;20816;50.950;11.108;2023-05-07T01:24:15;98735.22;;;10.93;100.00
34586;BME280;20816;50.950;11.108;2023-05-07T01:26:43;98733.38;;;10.97;100.00
34586;BME280;20816;50.950;11.108;2023-05-07T01:29:11;98722.91;;;10.93;100.00
34586;BME280;20816;50.950;11.108;2023-05-07T01:31:39;98725.03;;;10.76;100.00
34586;BME280;20816;50.950;11.108;2023-05-07T01:34:08;98720.44;;;10.86;100.00
34586;BME280;20816;50.950;11.108;2023-05-07T01:36:37;98715.97;;;10.89;100.00
34586;BME280;20816;50.950;11.108;2023-05-07T01:39:05;98714.09;;;10.96;100.00
34586;BME280;20816;50.950;11.108;2023-05-07T01:41:32;98713.50;;;10.83;100.00
34586;BME280;20816;50.950;11.108;2023-05-07T01:44:00;98720.56;;;10.80;100.00
34586;BME280;20816;50.950;11.108;2023-05-07T01:46:27;98710.97;;;10.79;100.00
34586;BME280;20816;50.950;11.108;2023-05-07T01:48:55;98710.09;;;10.78;100.00
34586;BME280;20816;50.950;11.108;2023-05-07T01:51:22;98711.75;;;10.84;100.00
34586;BME280;20816;50.950;11.108;2023-05-07T01:53:49;98707.16;;;10.93;100.00
34586;BME280;20816;50.950;11.108;2023-05-07T01:56:18;98714.13;;;10.94;100.00
34586;BME280;20816;50.950;11.108;2023-05-07T01:58:45;98713.13;;;11.00;100.00
34586;BME280;20816;50.950;11.108;2023-05-07T02:01:13;98716.88;;;10.88;100.00
34586;BME280;20816;50.950;11.108;2023-05-07T02:03:40;98703.72;;;10.88;100.00
34586;BME280;20816;50.950;11.108;2023-05-07T02:06:08;98714.22;;;10.91;100.00
34586;BME280;20816;50.950;11.108;2023-05-07T02:08:34;98712.59;;;10.84;100.00
34586;BME280;20816;50.950;11.108;2023-05-07T02:11:01;98708.88;;;10.94;100.00
34586;BME280;20816;50.950;11.108;2023-05-07T02:13:30;98713.22;;;10.95;100.00
34586;BME280;20816;50.950;11.108;2023-05-07T02:15:57;98709.78;;;10.93;100.00
34586;BME280;20816;50.950;11.108;2023-05-07T02:18:23;98703.72;;;10.88;100.00
34586;BME280;20816;50.950;11.108;2023-05-07T02:20:50;98707.53;;;10.74;100.00
34586;BME280;20816;50.950;11.108;2023-05-07T02:23:17;98707.47;;;10.78;100.00
34586;BME280;20816;50.950;11.108;2023-05-07T02:25:44;98704.91;;;10.75;100.00
34586;BME280;20816;50.950;11.108;2023-05-07T02:28:10;98702.28;;;10.75;100.00
34586;BME280;20816;50.950;11.108;2023-05-07T02:30:38;98710.16;;;10.75;100.00
34586;BME280;20816;50.950;11.108;2023-05-07T02:33:06;98717.16;;;10.76;100.00
34586;BME280;20816;50.950;11.108;2023-05-07T02:35:35;98715.44;;;10.74;100.00
34586;BME280;20816;50.950;11.108;2023-05-07T02:38:01;98711.94;;;10.73;100.00
34586;BME280;20816;50.950;11.108;2023-05-07T02:40:28;98712.72;;;10.78;100.00
34586;BME280;20816;50.950;11.108;2023-05-07T02:42:55;98715.53;;;10.69;100.00
34586;BME280;20816;50.950;11.108;2023-05-07T02:45:21;98714.44;;;10.79;100.00
34586;BME280;20816;50.950;11.108;2023-05-07T02:47:48;98715.38;;;10.77;100.00
34586;BME280;20816;50.950;11.108;2023-05-07T02:50:15;98724.97;;;10.79;100.00
34586;BME280;20816;50.950;11.108;2023-05-07T02:52:41;98715.34;;;10.78;100.00
34586;BME280;20816;50.950;11.108;2023-05-07T02:55:08;98711.97;;;10.72;100.00
34586;BME280;20816;50.950;11.108;2023-05-07T02:57:35;98707.66;;;10.69;100.00
34586;BME280;20816;50.950;11.108;2023-05-07T03:00:10;98702.53;;;10.63;100.00
34586;BME280;20816;50.950;11.108;2023-05-07T03:02:38;98709.38;;;10.70;100.00
34586;BME280;20816;50.950;11.108;2023-05-07T03:05:05;98710.97;;;10.79;100.00
34586;BME280;20816;50.950;11.108;2023-05-07T03:07:34;98710.88;;;10.83;100.00
34586;BME280;20816;50.950;11.108;2023-05-07T03:10:00;98705.53;;;10.86;100.00
34586;BME280;20816;50.950;11.108;2023-05-07T03:12:27;98702.00;;;10.87;100.00
34586;BME280;20816;50.950;11.108;2023-05-07T03:14:54;98702.09;;;10.84;100.00
34586;BME280;20816;50.950;11.108;2023-05-07T03:17:21;98709.28;;;10.76;100.00
34586;BME280;20816;50.950;11.108;2023-05-07T03:19:48;98700.59;;;10.71;100.00
34586;BME280;20816;50.950;11.108;2023-05-07T03:22:14;98698.00;;;10.70;100.00
34586;BME280;20816;50.950;11.108;2023-05-07T03:24:41;98705.84;;;10.71;100.00
34586;BME280;20816;50.950;11.108;2023-05-07T03:27:07;98705.81;;;10.73;100.00
34586;BME280;20816;50.950;11.108;2023-05-07T03:29:34;98705.06;;;10.66;100.00
34586;BME280;20816;50.950;11.108;2023-05-07T03:32:01;98710.28;;;10.69;100.00
34586;BME280;20816;50.950;11.108;2023-05-07T03:34:28;98702.59;;;10.60;100.00
34586;BME280;20816;50.950;11.108;2023-05-07T03:36:54;98698.19;;;10.60;100.00
34586;BME280;20816;50.950;11.108;2023-05-07T03:39:21;98705.25;;;10.57;100.00
34586;BME280;20816;50.950;11.108;2023-05-07T03:41:48;98696.47;;;10.58;100.00
34586;BME280;20816;50.950;11.108;2023-05-07T03:44:14;98705.38;;;10.52;100.00
34586;BME280;20816;50.950;11.108;2023-05-07T03:46:41;98706.19;;;10.54;100.00
34586;BME280;20816;50.950;11.108;2023-05-07T03:49:08;98715.13;;;10.46;100.00
34586;BME280;20816;50.950;11.108;2023-05-07T03:51:34;98714.03;;;10.56;100.00
34586;BME280;20816;50.950;11.108;2023-05-07T03:54:02;98711.41;;;10.56;100.00
34586;BME280;20816;50.950;11.108;2023-05-07T03:56:29;98713.91;;;10.63;100.00
34586;BME280;20816;50.950;11.108;2023-05-07T03:58:56;98723.72;;;10.54;100.00
34586;BME280;20816;50.950;11.108;2023-05-07T04:01:22;98725.41;;;10.56;100.00
34586;BME280;20816;50.950;11.108;2023-05-07T04:03:49;98730.88;;;10.47;100.00
34586;BME280;20816;50.950;11.108;2023-05-07T04:06:16;98734.53;;;10.38;100.00
34586;BME280;20816;50.950;11.108;2023-05-07T04:08:45;98734.31;;;10.49;100.00
34586;BME280;20816;50.950;11.108;2023-05-07T04:11:12;98728.16;;;10.50;100.00
34586;BME280;20816;50.950;11.108;2023-05-07T04:13:39;98727.38;;;10.47;100.00
34586;BME280;20816;50.950;11.108;2023-05-07T04:16:06;98738.81;;;10.44;100.00
34586;BME280;20816;50.950;11.108;2023-05-07T04:18:32;98730.97;;;10.43;100.00
34586;BME280;20816;50.950;11.108;2023-05-07T04:20:59;98734.72;;;10.29;100.00
34586;BME280;20816;50.950;11.108;2023-05-07T04:23:26;98742.72;;;10.20;100.00
34586;BME280;20816;50.950;11.108;2023-05-07T04:25:53;98739.16;;;10.24;100.00
34586;BME280;20816;50.950;11.108;2023-05-07T04:28:20;98736.44;;;10.30;100.00
34586;BME280;20816;50.950;11.108;2023-05-07T04:30:47;98749.31;;;10.44;100.00
34586;BME280;20816;50.950;11.108;2023-05-07T04:33:14;98754.56;;;10.46;100.00
34586;BME280;20816;50.950;11.108;2023-05-07T04:35:43;98753.72;;;10.44;100.00
34586;BME280;20816;50.950;11.108;2023-05-07T04:38:10;98753.44;;;10.59;100.00
34586;BME280;20816;50.950;11.108;2023-05-07T04:40:37;98758.69;;;10.59;100.00
34586;BME280;20816;50.950;11.108;2023-05-07T04:43:05;98761.25;;;10.62;100.00
34586;BME280;20816;50.950;11.108;2023-05-07T04:45:32;98760.28;;;10.66;100.00
34586;BME280;20816;50.950;11.108;2023-05-07T04:47:58;98762.09;;;10.62;100.00
34586;BME280;20816;50.950;11.108;2023-05-07T04:50:25;98772.47;;;10.70;100.00
34586;BME280;20816;50.950;11.108;2023-05-07T04:52:53;98768.19;;;10.64;100.00
34586;BME280;20816;50.950;11.108;2023-05-07T04:55:19;98767.50;;;10.55;100.00
34586;BME280;20816;50.950;11.108;2023-05-07T04:57:46;98762.16;;;10.61;100.00
34586;BME280;20816;50.950;11.108;2023-05-07T05:00:13;98771.09;;;10.51;100.00
34586;BME280;20816;50.950;11.108;2023-05-07T05:02:45;98767.44;;;10.58;100.00
34586;BME280;20816;50.950;11.108;2023-05-07T05:05:12;98774.28;;;10.68;100.00
34586;BME280;20816;50.950;11.108;2023-05-07T05:07:39;98770.06;;;10.59;100.00
34586;BME280;20816;50.950;11.108;2023-05-07T05:10:06;98781.44;;;10.60;100.00
34586;BME280;20816;50.950;11.108;2023-05-07T05:12:33;98784.97;;;10.59;100.00
34586;BME280;20816;50.950;11.108;2023-05-07T05:15:00;98784.06;;;10.60;100.00
34586;BME280;20816;50.950;11.108;2023-05-07T05:17:26;98785.69;;;10.65;100.00
34586;BME280;20816;50.950;11.108;2023-05-07T05:19:53;98790.22;;;10.59;100.00
34586;BME280;20816;50.950;11.108;2023-05-07T05:22:20;98783.22;;;10.58;100.00
34586;BME280;20816;50.950;11.108;2023-05-07T05:24:47;98780.63;;;10.56;100.00
34586;BME280;20816;50.950;11.108;2023-05-07T05:27:14;98785.81;;;10.61;100.00
34586;BME280;20816;50.950;11.108;2023-05-07T05:29:40;98784.25;;;10.49;100.00
34586;BME280;20816;50.950;11.108;2023-05-07T05:32:07;98784.25;;;10.49;100.00
34586;BME280;20816;50.950;11.108;2023-05-07T05:34:33;98785.97;;;10.52;100.00
34586;BME280;20816;50.950;11.108;2023-05-07T05:37:00;98797.66;;;10.35;100.00
34586;BME280;20816;50.950;11.108;2023-05-07T05:39:27;98795.59;;;10.53;100.00
34586;BME280;20816;50.950;11.108;2023-05-07T05:41:54;98790.38;;;10.50;100.00
34586;BME280;20816;50.950;11.108;2023-05-07T05:44:20;98799.25;;;10.44;100.00
34586;BME280;20816;50.950;11.108;2023-05-07T05:46:47;98793.97;;;10.46;100.00
34586;BME280;20816;50.950;11.108;2023-05-07T05:49:16;98793.00;;;10.50;100.00
34586;BME280;20816;50.950;11.108;2023-05-07T05:51:43;98801.84;;;10.46;100.00
34586;BME280;20816;50.950;11.108;2023-05-07T05:54:10;98798.13;;;10.57;100.00
34586;BME280;20816;50.950;11.108;2023-05-07T05:56:37;98804.28;;;10.56;100.00
34586;BME280;20816;50.950;11.108;2023-05-07T05:59:04;98807.16;;;10.41;100.00
34586;BME280;20816;50.950;11.108;2023-05-07T06:01:31;98800.75;;;10.59;100.00
34586;BME280;20816;50.950;11.108;2023-05-07T06:03:58;98805.22;;;10.54;100.00
34586;BME280;20816;50.950;11.108;2023-05-07T06:06:25;98801.19;;;10.34;100.00
34586;BME280;20816;50.950;11.108;2023-05-07T06:08:52;98808.34;;;10.26;100.00
34586;BME280;20816;50.950;11.108;2023-05-07T06:11:19;98815.34;;;10.24;100.00
34586;BME280;20816;50.950;11.108;2023-05-07T06:13:46;98805.66;;;10.28;100.00
34586;BME280;20816;50.950;11.108;2023-05-07T06:16:13;98814.59;;;10.15;100.00
34586;BME280;20816;50.950;11.108;2023-05-07T06:18:40;98813.84;;;10.08;100.00
34586;BME280;20816;50.950;11.108;2023-05-07T06:21:07;98815.47;;;10.15;100.00
34586;BME280;20816;50.950;11.108;2023-05-07T06:23:33;98823.16;;;10.29;100.00
34586;BME280;20816;50.950;11.108;2023-05-07T06:26:00;98832.94;;;10.19;100.00
34586;BME280;20816;50.950;11.108;2023-05-07T06:28:27;98839.88;;;10.23;100.00
34586;BME280;20816;50.950;11.108;2023-05-07T06:30:54;98842.41;;;10.29;100.00
34586;BME280;20816;50.950;11.108;2023-05-07T06:33:20;98843.41;;;10.22;100.00
34586;BME280;20816;50.950;11.108;2023-05-07T06:35:47;98841.63;;;10.24;100.00
34586;BME280;20816;50.950;11.108;2023-05-07T06:38:14;98849.63;;;10.15;100.00
34586;BME280;20816;50.950;11.108;2023-05-07T06:40:41;98838.19;;;10.18;100.00
34586;BME280;20816;50.950;11.108;2023-05-07T06:43:07;98839.94;;;10.19;100.00
34586;BME280;20816;50.950;11.108;2023-05-07T06:45:34;98826.66;;;10.29;100.00
34586;BME280;20816;50.950;11.108;2023-05-07T06:48:01;98829.38;;;10.22;100.00
34586;BME280;20816;50.950;11.108;2023-05-07T06:50:27;98844.22;;;10.27;100.00
34586;BME280;20816;50.950;11.108;2023-05-07T06:52:54;98844.19;;;10.29;100.00
34586;BME280;20816;50.950;11.108;2023-05-07T06:55:21;98837.94;;;10.36;100.00
34586;BME280;20816;50.950;11.108;2023-05-07T06:57:47;98846.63;;;10.39;100.00
34586;BME280;20816;50.950;11.108;2023-05-07T07:00:14;98847.59;;;10.34;100.00
34586;BME280;20816;50.950;11.108;2023-05-07T07:02:41;98860.75;;;10.32;100.00
34586;BME280;20816;50.950;11.108;2023-05-07T07:05:08;98854.72;;;10.27;100.00
34586;BME280;20816;50.950;11.108;2023-05-07T07:07:34;98863.25;;;10.40;100.00
34586;BME280;20816;50.950;11.108;2023-05-07T07:10:01;98863.13;;;10.48;100.00
34586;BME280;20816;50.950;11.108;2023-05-07T07:12:30;98850.44;;;10.20;100.00
34586;BME280;20816;50.950;11.108;2023-05-07T07:15:00;98866.00;;;10.32;100.00
34586;BME280;20816;50.950;11.108;2023-05-07T07:17:27;98866.00;;;10.32;100.00
34586;BME280;20816;50.950;11.108;2023-05-07T07:19:53;98872.88;;;10.41;100.00
34586;BME280;20816;50.950;11.108;2023-05-07T07:22:20;98871.84;;;10.50;100.00
34586;BME280;20816;50.950;11.108;2023-05-07T07:24:47;98871.06;;;10.45;100.00
34586;BME280;20816;50.950;11.108;2023-05-07T07:27:13;98866.66;;;10.47;100.00
34586;BME280;20816;50.950;11.108;2023-05-07T07:29:40;98869.19;;;10.53;100.00
34586;BME280;20816;50.950;11.108;2023-05-07T07:32:08;98872.09;;;10.36;100.00
34586;BME280;20816;50.950;11.108;2023-05-07T07:34:34;98862.19;;;10.52;100.00
34586;BME280;20816;50.950;11.108;2023-05-07T07:37:01;98869.22;;;10.50;100.00
34586;BME280;20816;50.950;11.108;2023-05-07T07:39:32;98864.66;;;10.61;100.00
34586;BME280;20816;50.950;11.108;2023-05-07T07:41:59;98862.69;;;10.72;100.00
34586;BME280;20816;50.950;11.108;2023-05-07T07:44:27;98865.09;;;10.84;100.00
34586;BME280;20816;50.950;11.108;2023-05-07T07:46:54;98862.34;;;10.90;100.00
34586;BME280;20816;50.950;11.108;2023-05-07T07:49:22;98860.66;;;10.88;100.00
34586;BME280;20816;50.950;11.108;2023-05-07T07:51:48;98857.22;;;10.84;100.00
34586;BME280;20816;50.950;11.108;2023-05-07T07:54:15;98855.31;;;10.92;100.00
34586;BME280;20816;50.950;11.108;2023-05-07T07:56:42;98865.09;;;10.84;100.00
34586;BME280;20816;50.950;11.108;2023-05-07T07:59:09;98870.41;;;10.81;100.00
34586;BME280;20816;50.950;11.108;2023-05-07T08:01:35;98866.72;;;10.91;100.00
34586;BME280;20816;50.950;11.108;2023-05-07T08:04:02;98870.38;;;10.84;100.00
34586;BME280;20816;50.950;11.108;2023-05-07T08:06:29;98865.28;;;10.75;100.00
34586;BME280;20816;50.950;11.108;2023-05-07T08:08:56;98869.78;;;10.69;100.00
34586;BME280;20816;50.950;11.108;2023-05-07T08:11:26;98865.41;;;10.66;100.00
34586;BME280;20816;50.950;11.108;2023-05-07T08:13:55;98861.75;;;10.76;100.00
34586;BME280;20816;50.950;11.108;2023-05-07T08:16:22;98865.28;;;10.75;100.00
34586;BME280;20816;50.950;11.108;2023-05-07T08:18:49;98868.75;;;10.77;100.00
34586;BME280;20816;50.950;11.108;2023-05-07T08:21:16;98877.47;;;10.79;100.00
34586;BME280;20816;50.950;11.108;2023-05-07T08:23:43;98872.31;;;10.73;100.00
34586;BME280;20816;50.950;11.108;2023-05-07T08:26:12;98882.53;;;10.88;100.00
34586;BME280;20816;50.950;11.108;2023-05-07T08:28:42;98881.00;;;10.78;100.00
34586;BME280;20816;50.950;11.108;2023-05-07T08:31:08;98878.16;;;10.89;100.00
34586;BME280;20816;50.950;11.108;2023-05-07T08:33:35;98878.22;;;10.86;100.00
34586;BME280;20816;50.950;11.108;2023-05-07T08:36:02;98879.75;;;10.98;100.00
34586;BME280;20816;50.950;11.108;2023-05-07T08:38:29;98877.19;;;10.94;100.00
34586;BME280;20816;50.950;11.108;2023-05-07T08:40:55;98871.84;;;10.98;100.00
34586;BME280;20816;50.950;11.108;2023-05-07T08:43:26;98889.31;;;11.02;100.00
34586;BME280;20816;50.950;11.108;2023-05-07T08:45:54;98887.53;;;11.04;100.00
34586;BME280;20816;50.950;11.108;2023-05-07T08:48:25;98896.41;;;10.97;100.00
34586;BME280;20816;50.950;11.108;2023-05-07T08:50:52;98885.97;;;10.93;100.00
34586;BME280;20816;50.950;11.108;2023-05-07T08:53:19;98884.34;;;10.86;100.00
34586;BME280;20816;50.950;11.108;2023-05-07T08:55:47;98894.78;;;10.89;100.00
34586;BME280;20816;50.950;11.108;2023-05-07T08:58:14;98905.19;;;10.97;100.00
34586;BME280;20816;50.950;11.108;2023-05-07T09:00:42;98898.03;;;11.04;100.00
34586;BME280;20816;50.950;11.108;2023-05-07T09:03:09;98894.47;;;11.06;100.00
34586;BME280;20816;50.950;11.108;2023-05-07T09:05:39;98899.56;;;11.17;100.00
34586;BME280;20816;50.950;11.108;2023-05-07T09:08:08;98896.81;;;11.21;100.00
34586;BME280;20816;50.950;11.108;2023-05-07T09:10:35;98901.19;;;11.24;100.00
34586;BME280;20816;50.950;11.108;2023-05-07T09:13:02;98903.88;;;11.19;100.00
34586;BME280;20816;50.950;11.108;2023-05-07T09:15:30;98900.38;;;11.19;100.00
34586;BME280;20816;50.950;11.108;2023-05-07T09:18:00;98899.56;;;11.17;100.00
34586;BME280;20816;50.950;11.108;2023-05-07T09:20:30;98904.25;;;11.01;100.00
34586;BME280;20816;50.950;11.108;2023-05-07T09:22:57;98899.59;;;11.14;100.00
34586;BME280;20816;50.950;11.108;2023-05-07T09:25:31;98898.66;;;11.18;100.00
34586;BME280;20816;50.950;11.108;2023-05-07T09:28:00;98903.19;;;11.10;100.00
34586;BME280;20816;50.950;11.108;2023-05-07T09:30:28;98906.66;;;11.12;100.00
34586;BME280;20816;50.950;11.108;2023-05-07T09:32:57;98904.69;;;11.23;100.00
34586;BME280;20816;50.950;11.108;2023-05-07T09:35:24;98904.59;;;11.28;100.00
34586;BME280;20816;50.950;11.108;2023-05-07T09:37:55;98894.34;;;11.14;100.00
34586;BME280;20816;50.950;11.108;2023-05-07T09:42:49;98905.78;;;11.11;100.00
34586;BME280;20816;50.950;11.108;2023-05-07T09:45:23;98898.53;;;11.24;100.00
34586;BME280;20816;50.950;11.108;2023-05-07T09:47:54;98906.28;;;11.30;100.00
34586;BME280;20816;50.950;11.108;2023-05-07T09:50:29;98905.19;;;11.42;100.00
34586;BME280;20816;50.950;11.108;2023-05-07T09:52:59;98912.00;;;11.52;100.00
34586;BME280;20816;50.950;11.108;2023-05-07T09:55:26;98910.94;;;11.61;100.00
34586;BME280;20816;50.950;11.108;2023-05-07T09:57:53;98905.56;;;11.67;100.00
34586;BME280;20816;50.950;11.108;2023-05-07T10:00:22;98909.00;;;11.69;100.00
34586;BME280;20816;50.950;11.108;2023-05-07T10:02:50;98906.25;;;11.75;100.00
34586;BME280;20816;50.950;11.108;2023-05-07T10:05:19;98905.56;;;11.67;100.00
34586;BME280;20816;50.950;11.108;2023-05-07T10:07:48;98910.59;;;11.77;100.00
34586;BME280;20816;50.950;11.108;2023-05-07T10:10:17;98911.31;;;11.86;100.00
34586;BME280;20816;50.950;11.108;2023-05-07T10:12:44;98905.88;;;11.93;100.00
34586;BME280;20816;50.950;11.108;2023-05-07T10:15:12;98910.13;;;12.00;100.00
34586;BME280;20816;50.950;11.108;2023-05-07T10:17:39;98907.22;;;12.11;100.00
34586;BME280;20816;50.950;11.108;2023-05-07T10:20:07;98909.25;;;12.37;100.00
34586;BME280;20816;50.950;11.108;2023-05-07T10:22:40;98908.84;;;12.17;100.00
34586;BME280;20816;50.950;11.108;2023-05-07T10:25:22;98911.53;;;12.15;100.00
34586;BME280;20816;50.950;11.108;2023-05-07T10:27:50;98908.03;;;12.15;100.00
34586;BME280;20816;50.950;11.108;2023-05-07T10:30:25;98910.69;;;12.13;100.00
34586;BME280;20816;50.950;11.108;2023-05-07T10:32:59;98906.56;;;12.01;100.00
34586;BME280;20816;50.950;11.108;2023-05-07T10:35:38;98901.41;;;11.97;100.00
34586;BME280;20816;50.950;11.108;2023-05-07T10:38:05;98897.53;;;12.12;100.00
34586;BME280;20816;50.950;11.108;2023-05-07T10:40:33;98897.97;;;11.93;100.00
34586;BME280;20816;50.950;11.108;2023-05-07T10:43:04;98897.72;;;12.05;100.00
34586;BME280;20816;50.950;11.108;2023-05-07T10:45:35;98900.03;;;12.18;100.00
34586;BME280;20816;50.950;11.108;2023-05-07T10:48:09;98896.63;;;12.13;100.00
34586;BME280;20816;50.950;11.108;2023-05-07T10:51:21;98898.53;;;12.07;100.00
34586;BME280;20816;50.950;11.108;2023-05-07T10:53:48;98892.44;;;12.05;100.00
34586;BME280;20816;50.950;11.108;2023-05-07T10:58:47;98901.91;;;12.13;100.00
34586;BME280;20816;50.950;11.108;2023-05-07T11:01:14;98902.28;;;11.97;100.00
34586;BME280;20816;50.950;11.108;2023-05-07T11:04:15;98898.19;;;12.23;100.00
34586;BME280;20816;50.950;11.108;2023-05-07T11:06:41;98896.97;;;12.36;100.00
34586;BME280;20816;50.950;11.108;2023-05-07T11:09:08;98893.41;;;12.37;100.00
34586;BME280;20816;50.950;11.108;2023-05-07T11:11:48;98903.88;;;12.42;100.00
34586;BME280;20816;50.950;11.108;2023-05-07T11:14:43;98903.69;;;12.49;100.00
34586;BME280;20816;50.950;11.108;2023-05-07T11:17:10;98896.59;;;12.51;100.00
34586;BME280;20816;50.950;11.108;2023-05-07T11:19:54;98898.69;;;12.73;100.00
34586;BME280;20816;50.950;11.108;2023-05-07T11:22:39;98889.06;;;12.72;100.00
34586;BME280;20816;50.950;11.108;2023-05-07T11:25:07;98894.25;;;12.75;100.00
34586;BME280;20816;50.950;11.108;2023-05-07T11:27:34;98896.72;;;12.81;100.00
34586;BME280;20816;50.950;11.108;2023-05-07T11:30:01;98892.28;;;12.83;100.00
34586;BME280;20816;50.950;11.108;2023-05-07T11:32:29;98886.88;;;12.87;99.96
34586;BME280;20816;50.950;11.108;2023-05-07T11:34:58;98893.19;;;12.82;98.71
34586;BME280;20816;50.950;11.108;2023-05-07T11:37:27;98892.31;;;12.81;99.84
34586;BME280;20816;50.950;11.108;2023-05-07T11:40:06;98886.59;;;12.98;98.88
34586;BME280;20816;50.950;11.108;2023-05-07T11:42:35;98883.03;;;12.99;99.04
34586;BME280;20816;50.950;11.108;2023-05-07T11:45:05;98884.25;;;13.18;98.67
34586;BME280;20816;50.950;11.108;2023-05-07T11:47:33;98886.91;;;13.20;97.73
34586;BME280;20816;50.950;11.108;2023-05-07T11:50:05;98888.50;;;13.26;96.55
34586;BME280;20816;50.950;11.108;2023-05-07T11:52:34;98894.53;;;13.31;97.91
34586;BME280;20816;50.950;11.108;2023-05-07T11:55:02;98899.66;;;13.37;96.25
34586;BME280;20816;50.950;11.108;2023-05-07T11:57:30;98899.72;;;13.34;94.43
34586;BME280;20816;50.950;11.108;2023-05-07T11:59:58;98902.34;;;13.34;94.67
34586;BME280;20816;50.950;11.108;2023-05-07T12:02:25;98899.97;;;13.25;96.00
34586;BME280;20816;50.950;11.108;2023-05-07T12:04:53;98905.56;;;13.12;95.70
34586;BME280;20816;50.950;11.108;2023-05-07T12:07:20;98901.44;;;13.35;95.91
34586;BME280;20816;50.950;11.108;2023-05-07T12:09:47;98907.13;;;13.52;94.94
34586;BME280;20816;50.950;11.108;2023-05-07T12:12:14;98896.09;;;13.67;93.60
34586;BME280;20816;50.950;11.108;2023-05-07T12:14:42;98908.53;;;13.33;95.43
34586;BME280;20816;50.950;11.108;2023-05-07T12:17:11;98910.63;;;13.53;94.62
34586;BME280;20816;50.950;11.108;2023-05-07T12:19:39;98903.44;;;13.58;94.75
34586;BME280;20816;50.950;11.108;2023-05-07T12:22:10;98905.47;;;13.48;94.70
34586;BME280;20816;50.950;11.108;2023-05-07T12:24:56;98913.06;;;13.60;93.63
34586;BME280;20816;50.950;11.108;2023-05-07T12:27:24;98907.69;;;13.63;94.13
34586;BME280;20816;50.950;11.108;2023-05-07T12:29:50;98910.84;;;13.74;93.33
34586;BME280;20816;50.950;11.108;2023-05-07T12:32:19;98914.97;;;13.85;93.02
34586;BME280;20816;50.950;11.108;2023-05-07T12:34:49;98918.25;;;13.63;92.39
34586;BME280;20816;50.950;11.108;2023-05-07T12:37:16;98919.31;;;13.56;94.02
34586;BME280;20816;50.950;11.108;2023-05-07T12:40:02;98922.66;;;13.63;92.53
34586;BME280;20816;50.950;11.108;2023-05-07T12:42:33;98926.81;;;13.71;91.67
34586;BME280;20816;50.950;11.108;2023-05-07T12:45:15;98925.53;;;13.85;91.93
34586;BME280;20816;50.950;11.108;2023-05-07T12:47:46;98912.50;;;13.79;91.82
34586;BME280;20816;50.950;11.108;2023-05-07T12:50:15;98906.66;;;13.67;93.02